KISQ/ISQ METAR and TAF weather

Enter ICAO airport designator
Station Type Date Time Source
KISQ METAR 2022/01/29 09:55 UTC NOAA

KISQ 290955Z AUTO 00000KT 10SM CLR M22/M25 A3014 RMK AO2 T12211250


Station Type Date Time Source
KISQ Decoded METAR 2022/01/29 09:55 UTC NOAA

Manistique, Schoolcraft County Airport, MI, United States (KISQ) 45-58-29N 086-10-19W
Jan 29, 2022 - 04:55 AM EST / 2022.01.29 0955 UTC
Wind: Calm:0
Visibility: 10 mile(s):0
Sky conditions: clear
Temperature: -7.8 F (-22.1 C)
Dew Point: -13.0 F (-25.0 C)
Relative Humidity: 77%
Pressure (altimeter): 30.14 in. Hg (1020 hPa)
ob: KISQ 290955Z AUTO 00000KT 10SM CLR M22/M25 A3014 RMK AO2 T12211250
cycle: 10

Station Type Date Time Source
KISQ TAF UTC NOAA

Error!

Example: see airport list